EGSSEGHI

Guest
Details From EGSS - London Stansted
To EGHI - Southampton
Flight Number -
Tags Generated
Created
Modified
Stats Distance 81 nm / 151 km
Max Altitude 0 ft / 0 m
Waypoints 2
Social Downloads 2
Likes 0
Share VATSIM

Download

Looking for another format? Having issues loading an existing format? Contact us
Advertisement - Login to hide

Notes

Generated

Route

EGSS EGHI

ID Type Via Altitude Latitude Longitude Leg Dist Tot Dist Heading (true) Name
O EGSS APT - 0 ft / 0 m 51.87508˚ 0.21993˚ - 0 nm - -
O EGHI APT - 0 ft / 0 m 50.94295˚ -1.36088˚ 81 nm 81 nm 227° / 226° -

Altitude Profile

Advertisement - Login to hide

EGSS

Details ICAO EGSS (STN)
Name London Stansted
Region United Kingdom
Timezone Europe/London (UTC+0.0)
Stats Elevation 348 ft / 106 m (AMSL)
Location 51.885097° 0.234962°
Runways 1
Magnetic Variation 0.362° W

METAR

EGSS 162020Z AUTO 31007KT 5000 BR NCD 01/01 Q1020

Decode

TAF

TAF EGSS 161656Z 1618/1724 29010KT 9999 SCT040 PROB40 TEMPO 1618/1621 6000 BKN004 PROB30 1620/1624 0300 FG BKN001 BECMG 1700/1703 VRB04KT 0300 FG VV/// TEMPO 1701/1709 FZFG BECMG 1709/1712 5000 BR BKN005 BECMG 1712/1715 23010KT TEMPO 1712/1721 2000 RADZ BKN002 PROB30 TEMPO 1715/1721 24015G25KT BECMG 1719/1722 30012KT 9999 NSW FEW030 PROB30 TEMPO 1721/1724 31015G25KT

Decode

Departure Runways

ID Width Length Bearing (true) Bearing (mag) Surface Threshold Offset Overrun Length
04 151 ft / 46 m 10,011 ft / 3,052 m 42.79° 43.15° Asphalt 994 ft / 303 m 0 ft / 0 m
22 151 ft / 46 m 10,011 ft / 3,052 m 222.81° 223.17° Asphalt 0 ft / 0 m 0 ft / 0 m

EGHI

Details ICAO EGHI (SOU)
Name Southampton
Region United Kingdom
Timezone Europe/London (UTC+0.0)
Stats Elevation 44 ft / 13 m (AMSL)
Location 50.950255° -1.356806°
Runways 1
Magnetic Variation 0.812° W

METAR

EGHI 162020Z 00000KT CAVOK 02/01 Q1022

Decode

TAF

Not found

Destination Runways

ID Width Length Bearing (true) Bearing (mag) Surface Threshold Offset Overrun Length
02 121 ft / 37 m 5,650 ft / 1,722 m 19.33° 20.14° Asphalt 240 ft / 73 m 0 ft / 0 m
20 121 ft / 37 m 5,650 ft / 1,722 m 199.34° 200.15° Asphalt 144 ft / 44 m 0 ft / 0 m

Approach Navaids

Runway Type Ident Frequency Range Bearing (true) Bearing (mag) Slope Elevation
20 Localiser ISN 110.75 MHz 18 nm / 33 km 199.34° 200.15° - 44 ft / 13 m (AMSL)
20 Glidescope ISN 110.75 MHz 10 nm / 19 km 199.34° 200.15° 3.10° 44 ft / 13 m (AMSL)
20 DME ISN 110.75 MHz 18 nm / 33 km - - - 54 ft / 16 m (AMSL)